Latest Weather Observations for Lake Julius

IDQ60801

Issued at 11:35 pm EST Sunday 21 September 2014 (issued every 30 minutes, with the page automatically refreshed every 10 minutes)

About weather observations | Map of weather stations | Latest weather observations for QLD | Other Formats
Station Details ID: 029181 Name: LAKE JULIUS AWS Lat: -20.12 Lon: 139.73 Height: 237.0 m
Data from the previous 72 hours. | See also: Recent months for locations in Queensland
Date/Time
EST
Temp
°C
App
Temp
°C
Dew
Point
Rel
Hum
%
Delta-T
°C
Wind Press
QNH
hPa
Press
MSL
hPa
Rain
since 9 am
mm
Dir
 
Spd
km/h
Gust
km/h
Spd
kts
Gust
kts
21/11:30pm 22.9 17.6 -3.4 17 11.3 S 15 24 8 13 - - 0.0
21/11:00pm 23.4 18.8 -3.8 16 11.6 S 11 24 6 13 - - 0.0
21/10:30pm 24.0 19.0 -4.2 15 12.0 S 13 26 7 14 - - 0.0
21/10:00pm 24.5 18.7 -4.7 14 12.4 S 17 28 9 15 - - 0.0
21/09:30pm 24.9 18.7 -4.4 14 12.6 S 19 30 10 16 - - 0.0
21/09:00pm 25.5 19.0 -6.0 12 13.2 S 20 32 11 17 - - 0.0
21/08:30pm 25.9 20.3 -6.8 11 13.5 SSW 15 24 8 13 - - 0.0
21/08:00pm 26.5 20.8 -7.6 10 14.0 SSW 15 22 8 12 - - 0.0
21/07:30pm 27.2 21.5 -7.0 10 14.3 SSW 15 26 8 14 - - 0.0
21/07:00pm 27.9 22.5 -4.1 12 14.1 SSW 15 24 8 13 - - 0.0
21/06:30pm 28.6 23.6 -1.5 14 14.0 SSW 15 22 8 12 - - 0.0
21/06:00pm 29.6 25.8 -0.7 14 14.4 SSW 9 17 5 9 - - 0.0
21/05:30pm 30.0 25.5 -0.4 14 14.6 S 13 24 7 13 - - 0.0
21/05:00pm 30.6 27.3 0.1 14 14.8 S 7 15 4 8 - - 0.0
21/04:30pm 30.4 25.9 -0.1 14 14.7 SSW 13 24 7 13 - - 0.0
21/04:00pm 30.8 27.4 -0.8 13 15.1 SSE 7 17 4 9 - - 0.0
21/03:30pm 30.6 26.8 -0.9 13 15.0 SSE 9 19 5 10 - - 0.0
21/03:00pm 30.1 26.2 -1.3 13 14.8 SSE 9 22 5 12 - - 0.0
21/02:30pm 30.9 26.7 -0.7 13 15.2 S 11 20 6 11 - - 0.0
21/02:00pm 30.6 26.4 -0.9 13 15.0 SSE 11 26 6 14 - - 0.0
21/01:30pm 30.5 25.8 -2.1 12 15.2 SSE 13 22 7 12 - - 0.0
21/01:00pm 29.5 24.3 -2.9 12 14.8 SSW 15 24 8 13 - - 0.0
21/12:30pm 29.8 25.1 -1.5 13 14.7 SSE 13 24 7 13 - - 0.0
21/12:00pm 29.4 24.3 -1.9 13 14.6 S 15 28 8 15 - - 0.0
21/11:30am 29.1 25.1 0.7 16 13.8 S 11 20 6 11 - - 0.0
21/11:00am 27.2 22.6 1.6 19 12.5 S 15 24 8 13 - - 0.0
21/10:30am 26.7 22.2 1.9 20 12.1 S 15 24 8 13 - - 0.0
21/10:00am 26.5 22.0 2.4 21 11.8 S 15 24 8 13 - - 0.0
21/09:30am 25.2 20.7 2.0 22 11.2 S 15 22 8 12 - - 0.0
21/09:00am 24.1 19.5 1.7 23 10.7 S 15 24 8 13 - - 0.0
21/08:30am 23.3 19.1 1.6 24 10.3 S 13 22 7 12 - - 0.0
21/08:00am 22.4 17.8 1.4 25 9.8 S 15 26 8 14 - - 0.0
21/07:30am 21.6 18.2 1.8 27 9.3 S 9 19 5 10 - - 0.0
21/07:00am 20.6 16.8 1.5 28 8.8 SSW 11 17 6 9 - - 0.0
21/06:30am 20.4 16.9 1.3 28 8.8 S 9 17 5 9 - - 0.0
21/06:00am 20.3 16.7 0.7 27 8.9 S 9 13 5 7 - - 0.0
21/05:30am 20.3 16.6 0.2 26 9.0 S 9 13 5 7 - - 0.0
21/05:00am 20.4 16.7 -0.3 25 9.2 S 9 17 5 9 - - 0.0
21/04:30am 20.2 16.7 -1.0 24 9.3 S 7 17 4 9 - - 0.0
21/04:00am 20.4 16.5 -1.4 23 9.5 SSW 9 15 5 8 - - 0.0
21/03:30am 20.7 16.9 -1.1 23 9.6 S 9 15 5 8 - - 0.0
21/03:00am 21.3 17.0 -1.3 22 10.0 S 11 20 6 11 - - 0.0
21/02:30am 21.3 17.3 -1.9 21 10.1 S 9 13 5 7 - - 0.0
21/02:00am 21.7 16.9 -2.2 20 10.4 SSE 13 20 7 11 - - 0.0
21/01:30am 22.3 17.4 -3.1 18 10.9 SSE 13 22 7 12 - - 0.0
21/01:00am 22.8 17.2 -2.7 18 11.1 S 17 32 9 17 - - 0.0
21/12:30am 23.1 18.3 -2.5 18 11.2 SSE 13 24 7 13 - - 0.0
21/12:00am 24.0 16.7 -2.5 17 11.7 S 26 41 14 22 - - 0.0
 
Date/Time
EST
Temp
°C
App
Temp
°C
Dew
Point
Rel
Hum
%
Delta-T
°C
Wind Press
QNH
hPa
Press
MSL
hPa
Rain
since 9 am
mm
Dir
 
Spd
km/h
Gust
km/h
Spd
kts
Gust
kts
20/11:30pm 26.3 21.1 -2.4 15 12.9 SSE 15 26 8 14 - - 0.0
20/11:00pm 26.9 20.9 -2.8 14 13.3 S 19 26 10 14 - - 0.0
20/10:30pm 27.5 21.7 -1.4 15 13.4 S 19 32 10 17 - - 0.0
20/10:00pm 28.2 21.4 -1.8 14 13.8 SSE 24 39 13 21 - - 0.0
20/09:30pm 28.2 25.2 -1.8 14 13.8 ESE 4 6 2 3 - - 0.0
20/09:00pm 28.2 25.6 -1.8 14 13.8 NE 2 2 1 1 - - 0.0
20/08:30pm 29.2 26.6 -2.0 13 14.5 E 2 6 1 3 - - 0.0
20/08:00pm 30.0 26.5 -2.5 12 15.0 ENE 6 11 3 6 - - 0.0
20/07:30pm 29.8 26.7 -2.6 12 14.9 E 4 6 2 3 - - 0.0
20/07:00pm 31.2 28.5 -2.7 11 15.8 ENE 2 6 1 3 - - 0.0
20/06:30pm 31.8 29.0 -3.5 10 16.3 ENE 2 11 1 6 - - 0.0
20/06:00pm 33.0 29.9 -2.6 10 16.8 E 4 7 2 4 - - 0.0
20/05:30pm 33.5 30.3 -3.7 9 17.3 WSW 4 7 2 4 - - 0.0
20/05:00pm 34.3 30.6 -3.1 9 17.7 SSW 7 11 4 6 - - 0.0
20/04:30pm 34.0 29.9 -3.3 9 17.5 S 9 19 5 10 - - 0.0
20/04:00pm 34.7 31.6 -2.8 9 17.8 NE 4 7 2 4 - - 0.0
20/03:30pm 33.9 30.1 -3.4 9 17.5 NE 7 13 4 7 - - 0.0
20/03:00pm 33.2 29.6 -3.9 9 17.2 NNE 6 15 3 8 - - 0.0
20/02:30pm 33.9 29.0 -3.4 9 17.5 NNE 13 22 7 12 - - 0.0
20/02:00pm 33.3 28.4 -3.8 9 17.2 N 13 20 7 11 - - 0.0
20/01:30pm 32.9 27.9 -4.1 9 17.0 N 13 24 7 13 - - 0.0
20/01:00pm 31.7 26.6 -5.0 9 16.5 N 13 22 7 12 - - 0.0
20/12:30pm 31.6 27.4 -3.7 10 16.2 NNE 9 15 5 8 - - 0.0
20/12:00pm 30.2 24.4 -4.8 10 15.6 NNE 17 26 9 14 - - 0.0
20/11:30am 29.5 23.2 -4.0 11 15.0 NE 20 30 11 16 - - 0.0
20/11:00am 28.6 23.3 -3.6 12 14.4 ENE 15 24 8 13 - - 0.0
20/10:30am 28.7 23.8 -3.5 12 14.5 E 13 30 7 16 - - 0.0
20/10:00am 27.0 21.7 -3.7 13 13.6 ENE 15 22 8 12 - - 0.0
20/09:30am 26.1 21.2 -3.5 14 13.0 ENE 13 22 7 12 - - 0.0
20/09:00am 25.1 18.9 -3.3 15 12.4 ENE 20 32 11 17 - - 0.0
20/08:30am 24.9 20.1 -2.6 16 12.2 E 13 24 7 13 - - 0.0
20/08:00am 24.1 20.1 -2.4 17 11.7 NE 9 17 5 9 - - 0.0
20/07:30am 23.0 18.6 -2.6 18 11.2 ENE 11 20 6 11 - - 0.0
20/07:00am 21.4 18.3 -2.5 20 10.3 NE 4 11 2 6 - - 0.0
20/06:30am 21.4 17.9 -2.5 20 10.3 NE 6 11 3 6 - - 0.0
20/06:00am 21.5 18.5 -1.7 21 10.2 E 4 7 2 4 - - 0.0
20/05:30am 18.9 16.2 -2.1 24 8.9 NE 2 6 1 3 - - 0.0
20/05:00am 17.9 15.6 0.1 30 7.8 SSE 2 9 1 5 - - 0.0
20/04:30am 17.3 15.1 -1.9 27 8.1 CALM 0 0 0 0 - - 0.0
20/04:00am 17.9 15.9 0.1 30 7.8 CALM 0 0 0 0 - - 0.0
20/03:30am 18.3 17.0 4.1 39 6.8 CALM 0 0 0 0 - - 0.0
20/03:00am 18.6 15.9 2.4 34 7.5 SSW 6 6 3 3 - - 0.0
20/02:30am 19.4 18.2 4.4 37 7.3 CALM 0 4 0 2 - - 0.0
20/02:00am 19.1 17.4 1.6 31 8.0 CALM 0 0 0 0 - - 0.0
20/01:30am 19.1 16.8 0.2 28 8.4 N 2 6 1 3 - - 0.0
20/01:00am 20.0 18.4 2.4 31 8.3 CALM 0 0 0 0 - - 0.0
20/12:30am 20.3 18.1 3.1 32 8.2 SSW 4 7 2 4 - - 0.0
20/12:00am 21.2 20.1 7.1 40 7.3 SW 2 4 1 2 - - 0.0
 
Date/Time
EST
Temp
°C
App
Temp
°C
Dew
Point
Rel
Hum
%
Delta-T
°C
Wind Press
QNH
hPa
Press
MSL
hPa
Rain
since 9 am
mm
Dir
 
Spd
km/h
Gust
km/h
Spd
kts
Gust
kts
19/11:30pm 22.0 20.5 6.7 37 7.9 SW 4 6 2 3 - - 0.0
19/11:00pm 21.9 20.6 7.7 40 7.5 SSW 4 6 2 3 - - 0.0
19/10:30pm 22.5 20.9 8.2 40 7.6 SSW 6 7 3 4 - - 0.0
19/10:00pm 23.4 21.8 7.9 37 8.3 SSW 6 7 3 4 - - 0.0
19/09:30pm 24.3 22.0 5.6 30 9.6 SSW 7 9 4 5 - - 0.0
19/09:00pm 25.3 22.6 -6.1 12 13.1 CALM 0 0 0 0 - - 0.0
19/08:30pm 25.9 23.1 -6.8 11 13.5 CALM 0 0 0 0 - - 0.0
19/08:00pm 27.3 24.5 -6.9 10 14.3 CALM 0 0 0 0 - - 0.0
19/07:30pm 28.6 25.1 -6.0 10 14.9 ENE 4 7 2 4 - - 0.0
19/07:00pm 29.8 26.7 -6.4 9 15.6 E 2 6 1 3 - - 0.0
19/06:30pm 30.8 27.2 -7.2 8 16.3 E 4 7 2 4 - - 0.0
19/06:00pm 31.8 27.3 -6.5 8 16.8 SSE 9 17 5 9 - - 0.0
19/05:30pm 32.1 28.0 -6.3 8 16.9 S 7 13 4 7 - - 0.0
19/05:00pm 32.6 28.6 -5.9 8 17.1 S 7 13 4 7 - - 0.0
19/04:30pm 33.0 27.9 -5.6 8 17.3 SSW 13 22 7 12 - - 0.0
19/04:00pm 32.6 28.2 -5.9 8 17.1 SSW 9 17 5 9 - - 0.0
19/03:30pm 32.5 27.7 -6.0 8 17.1 SSW 11 19 6 10 - - 0.0
19/03:00pm 33.5 29.0 -7.0 7 17.8 SE 9 24 5 13 - - 0.0
19/02:30pm 32.5 27.9 -7.7 7 17.3 E 9 20 5 11 - - 0.0
19/02:00pm 32.1 27.9 -8.0 7 17.2 S 7 17 4 9 - - 0.0
19/01:30pm 32.2 25.7 -7.9 7 17.2 E 19 26 10 14 - - 0.0
19/01:00pm 31.2 25.8 -8.6 7 16.7 SE 13 24 7 13 - - 0.0
19/12:30pm 29.3 23.4 -10.0 7 15.8 ESE 15 20 8 11 - - 0.0
19/12:00pm 29.7 24.6 -9.7 7 16.0 E 11 20 6 11 - - 0.0
19/11:30am 29.2 23.8 -8.4 8 15.6 NNE 13 24 7 13 - - 0.0
19/11:00am 28.8 23.4 -8.7 8 15.4 ENE 13 24 7 13 - - 0.0
19/10:30am 27.5 22.0 -9.7 8 14.8 ESE 13 24 7 13 - - 0.0
19/10:00am 27.8 22.4 -7.9 9 14.7 E 13 24 7 13 - - 0.0
19/09:30am 26.6 21.2 -8.8 9 14.2 ESE 13 24 7 13 - - 0.0
19/09:00am 25.7 21.5 -8.2 10 13.6 ESE 7 17 4 9 - - 0.0
19/08:30am 24.5 20.9 -7.9 11 13.0 ESE 4 13 2 7 - - 0.0
19/08:00am 21.7 19.2 -3.6 18 10.7 CALM 0 0 0 0 - - 0.0
19/07:30am 19.9 17.8 1.8 30 8.4 SSW 2 4 1 2 - - 0.0
19/07:00am 18.4 16.8 2.7 35 7.3 CALM 0 4 0 2 - - 0.0
19/06:30am 19.0 17.1 2.8 34 7.6 SSW 2 6 1 3 - - 0.0
19/06:00am 18.5 16.1 -3.0 23 8.9 CALM 0 0 0 0 - - 0.0
19/05:30am 19.1 16.2 -4.4 20 9.5 S 2 6 1 3 - - 0.0
19/05:00am 20.4 16.6 -5.4 17 10.4 SSE 6 7 3 4 - - 0.0
19/04:30am 21.4 17.4 -5.4 16 10.9 SSE 7 13 4 7 - - 0.0
19/04:00am 21.6 18.6 -5.3 16 11.0 SE 2 6 1 3 - - 0.0
19/03:30am 21.6 18.4 -3.7 18 10.7 SE 4 9 2 5 - - 0.0
19/03:00am 21.4 18.3 -2.5 20 10.3 SE 4 9 2 5 - - 0.0
19/02:30am 21.5 18.4 -2.4 20 10.3 ESE 4 7 2 4 - - 0.0
19/02:00am 22.9 20.2 -2.6 18 11.1 ESE 2 4 1 2 - - 0.0
19/01:30am 22.0 18.9 -2.7 19 10.7 SE 4 4 2 2 - - 0.0
19/01:00am 23.0 20.3 -2.6 18 11.2 E 2 4 1 2 - - 0.0
19/12:30am 24.9 21.8 -2.6 16 12.2 SE 4 6 2 3 - - 0.0
19/12:00am 25.3 21.7 -2.3 16 12.3 SSE 7 13 4 7 - - 0.0

Other Formats:

Comma delimited format used in spreadsheet applications
http://www.bom.gov.au/fwo/IDQ60801/IDQ60801.94348.axf

JavaScript Object Notation format (JSON) in row-major order
http://www.bom.gov.au/fwo/IDQ60801/IDQ60801.94348.json